sensor_id;sensor_type;location;lat;lon;timestamp;pressure;altitude;pressure_sealevel;temperature;humidity
63447;BME280;49577;49.872;6.190;2023-05-20T00:02:07;99861.39;;;12.37;65.04
63447;BME280;49577;49.872;6.190;2023-05-20T00:04:32;99860.67;;;12.38;64.99
63447;BME280;49577;49.872;6.190;2023-05-20T00:06:57;99859.14;;;12.37;65.41
63447;BME280;49577;49.872;6.190;2023-05-20T00:09:23;99853.95;;;12.36;65.42
63447;BME280;49577;49.872;6.190;2023-05-20T00:11:48;99854.28;;;12.34;65.02
63447;BME280;49577;49.872;6.190;2023-05-20T00:14:13;99850.03;;;12.32;65.32
63447;BME280;49577;49.872;6.190;2023-05-20T00:16:39;99849.92;;;12.31;65.97
63447;BME280;49577;49.872;6.190;2023-05-20T00:19:05;99847.52;;;12.30;66.14
63447;BME280;49577;49.872;6.190;2023-05-20T00:21:30;99847.31;;;12.30;65.61
63447;BME280;49577;49.872;6.190;2023-05-20T00:23:57;99844.84;;;12.31;65.79
63447;BME280;49577;49.872;6.190;2023-05-20T00:26:22;99845.36;;;12.31;65.60
63447;BME280;49577;49.872;6.190;2023-05-20T00:28:48;99850.02;;;12.32;66.03
63447;BME280;49577;49.872;6.190;2023-05-20T00:31:13;99847.79;;;12.31;65.79
63447;BME280;49577;49.872;6.190;2023-05-20T00:33:38;99847.66;;;12.31;66.05
63447;BME280;49577;49.872;6.190;2023-05-20T00:36:04;99849.44;;;12.30;66.66
63447;BME280;49577;49.872;6.190;2023-05-20T00:38:29;99853.31;;;12.30;66.86
63447;BME280;49577;49.872;6.190;2023-05-20T00:40:55;99850.61;;;12.31;66.86
63447;BME280;49577;49.872;6.190;2023-05-20T00:43:20;99852.58;;;12.30;65.79
63447;BME280;49577;49.872;6.190;2023-05-20T00:45:46;99852.02;;;12.31;65.39
63447;BME280;49577;49.872;6.190;2023-05-20T00:48:12;99848.10;;;12.32;65.27
63447;BME280;49577;49.872;6.190;2023-05-20T00:50:38;99845.42;;;12.33;65.20
63447;BME280;49577;49.872;6.190;2023-05-20T00:53:05;99844.43;;;12.34;64.85
63447;BME280;49577;49.872;6.190;2023-05-20T00:55:30;99844.05;;;12.35;64.26
63447;BME280;49577;49.872;6.190;2023-05-20T00:57:56;99843.87;;;12.35;63.64
63447;BME280;49577;49.872;6.190;2023-05-20T01:00:22;99842.43;;;12.35;62.85
63447;BME280;49577;49.872;6.190;2023-05-20T01:02:47;99840.17;;;12.38;62.47
63447;BME280;49577;49.872;6.190;2023-05-20T01:05:13;99834.52;;;12.38;62.88
63447;BME280;49577;49.872;6.190;2023-05-20T01:07:38;99834.45;;;12.39;62.40
63447;BME280;49577;49.872;6.190;2023-05-20T01:10:04;99832.85;;;12.40;62.44
63447;BME280;49577;49.872;6.190;2023-05-20T01:12:34;99827.89;;;12.41;62.69
63447;BME280;49577;49.872;6.190;2023-05-20T01:15:04;99830.86;;;12.41;62.79
63447;BME280;49577;49.872;6.190;2023-05-20T01:17:31;99830.91;;;12.40;62.74
63447;BME280;49577;49.872;6.190;2023-05-20T01:19:58;99828.48;;;12.40;63.03
63447;BME280;49577;49.872;6.190;2023-05-20T01:22:26;99829.12;;;12.41;63.57
63447;BME280;49577;49.872;6.190;2023-05-20T01:24:51;99827.91;;;12.40;63.48
63447;BME280;49577;49.872;6.190;2023-05-20T01:27:20;99825.48;;;12.40;63.95
63447;BME280;49577;49.872;6.190;2023-05-20T01:29:47;99824.85;;;12.39;63.74
63447;BME280;49577;49.872;6.190;2023-05-20T01:32:27;99820.13;;;12.36;63.27
63447;BME280;49577;49.872;6.190;2023-05-20T01:34:56;99818.49;;;12.34;63.63
63447;BME280;49577;49.872;6.190;2023-05-20T01:37:23;99819.32;;;12.33;63.89
63447;BME280;49577;49.872;6.190;2023-05-20T01:39:49;99818.48;;;12.32;63.78
63447;BME280;49577;49.872;6.190;2023-05-20T01:42:16;99816.95;;;12.31;63.84
63447;BME280;49577;49.872;6.190;2023-05-20T01:44:42;99812.91;;;12.32;63.31
63447;BME280;49577;49.872;6.190;2023-05-20T01:47:07;99814.13;;;12.32;62.99
63447;BME280;49577;49.872;6.190;2023-05-20T01:49:32;99811.27;;;12.30;62.06
63447;BME280;49577;49.872;6.190;2023-05-20T01:51:58;99811.75;;;12.28;61.66
63447;BME280;49577;49.872;6.190;2023-05-20T01:54:23;99809.55;;;12.27;62.33
63447;BME280;49577;49.872;6.190;2023-05-20T01:56:49;99809.94;;;12.26;62.55
63447;BME280;49577;49.872;6.190;2023-05-20T01:59:15;99808.51;;;12.24;63.51
63447;BME280;49577;49.872;6.190;2023-05-20T02:01:40;99809.66;;;12.20;63.34
63447;BME280;49577;49.872;6.190;2023-05-20T02:04:05;99802.39;;;12.16;62.72
63447;BME280;49577;49.872;6.190;2023-05-20T02:06:31;99801.23;;;12.12;63.48
63447;BME280;49577;49.872;6.190;2023-05-20T02:08:56;99799.58;;;12.11;63.85
63447;BME280;49577;49.872;6.190;2023-05-20T02:11:22;99796.38;;;12.12;64.24
63447;BME280;49577;49.872;6.190;2023-05-20T02:13:48;99798.70;;;12.14;64.18
63447;BME280;49577;49.872;6.190;2023-05-20T02:16:14;99799.40;;;12.16;64.06
63447;BME280;49577;49.872;6.190;2023-05-20T02:18:39;99800.27;;;12.16;63.75
63447;BME280;49577;49.872;6.190;2023-05-20T02:21:04;99800.20;;;12.17;63.46
63447;BME280;49577;49.872;6.190;2023-05-20T02:23:30;99800.64;;;12.19;63.11
63447;BME280;49577;49.872;6.190;2023-05-20T02:25:56;99798.27;;;12.17;63.26
63447;BME280;49577;49.872;6.190;2023-05-20T02:28:21;99797.51;;;12.16;63.56
63447;BME280;49577;49.872;6.190;2023-05-20T02:30:47;99797.86;;;12.16;63.22
63447;BME280;49577;49.872;6.190;2023-05-20T02:33:12;99796.25;;;12.16;63.49
63447;BME280;49577;49.872;6.190;2023-05-20T02:35:38;99796.45;;;12.16;63.52
63447;BME280;49577;49.872;6.190;2023-05-20T02:38:04;99791.88;;;12.16;63.73
63447;BME280;49577;49.872;6.190;2023-05-20T02:40:29;99790.65;;;12.16;64.08
63447;BME280;49577;49.872;6.190;2023-05-20T02:42:54;99790.21;;;12.15;64.13
63447;BME280;49577;49.872;6.190;2023-05-20T02:45:20;99790.44;;;12.12;63.62
63447;BME280;49577;49.872;6.190;2023-05-20T02:47:45;99788.79;;;12.10;63.66
63447;BME280;49577;49.872;6.190;2023-05-20T02:50:10;99789.77;;;12.11;64.03
63447;BME280;49577;49.872;6.190;2023-05-20T02:52:36;99790.96;;;12.12;64.25
63447;BME280;49577;49.872;6.190;2023-05-20T02:55:01;99791.72;;;12.11;63.84
63447;BME280;49577;49.872;6.190;2023-05-20T02:57:26;99788.16;;;12.09;63.41
63447;BME280;49577;49.872;6.190;2023-05-20T02:59:53;99787.02;;;12.08;63.27
63447;BME280;49577;49.872;6.190;2023-05-20T03:02:19;99788.55;;;12.06;62.44
63447;BME280;49577;49.872;6.190;2023-05-20T03:04:44;99787.70;;;12.05;62.59
63447;BME280;49577;49.872;6.190;2023-05-20T03:07:11;99787.89;;;12.05;62.09
63447;BME280;49577;49.872;6.190;2023-05-20T03:09:36;99788.41;;;12.05;62.58
63447;BME280;49577;49.872;6.190;2023-05-20T03:12:02;99783.87;;;12.05;62.03
63447;BME280;49577;49.872;6.190;2023-05-20T03:14:27;99785.60;;;12.05;62.40
63447;BME280;49577;49.872;6.190;2023-05-20T03:16:53;99785.04;;;12.06;62.32
63447;BME280;49577;49.872;6.190;2023-05-20T03:19:21;99782.40;;;12.06;62.89
63447;BME280;49577;49.872;6.190;2023-05-20T03:21:47;99785.32;;;12.07;63.06
63447;BME280;49577;49.872;6.190;2023-05-20T03:24:12;99786.98;;;12.08;62.92
63447;BME280;49577;49.872;6.190;2023-05-20T03:26:37;99788.52;;;12.09;62.97
63447;BME280;49577;49.872;6.190;2023-05-20T03:29:08;99785.48;;;12.10;62.67
63447;BME280;49577;49.872;6.190;2023-05-20T03:31:33;99781.06;;;12.10;62.24
63447;BME280;49577;49.872;6.190;2023-05-20T03:33:58;99779.33;;;12.10;62.14
63447;BME280;49577;49.872;6.190;2023-05-20T03:36:24;99780.73;;;12.10;61.99
63447;BME280;49577;49.872;6.190;2023-05-20T03:38:49;99777.71;;;12.11;61.86
63447;BME280;49577;49.872;6.190;2023-05-20T03:41:14;99779.67;;;12.10;62.37
63447;BME280;49577;49.872;6.190;2023-05-20T03:43:40;99777.69;;;12.08;62.24
63447;BME280;49577;49.872;6.190;2023-05-20T03:46:05;99772.80;;;12.08;62.40
63447;BME280;49577;49.872;6.190;2023-05-20T03:48:31;99778.26;;;12.08;62.46
63447;BME280;49577;49.872;6.190;2023-05-20T03:50:56;99780.10;;;12.06;63.00
63447;BME280;49577;49.872;6.190;2023-05-20T03:53:21;99773.33;;;12.06;62.83
63447;BME280;49577;49.872;6.190;2023-05-20T03:55:47;99766.60;;;12.07;62.73
63447;BME280;49577;49.872;6.190;2023-05-20T03:58:13;99764.26;;;12.08;62.73
63447;BME280;49577;49.872;6.190;2023-05-20T04:00:39;99761.68;;;12.07;62.80
63447;BME280;49577;49.872;6.190;2023-05-20T04:03:05;99764.44;;;12.08;62.87
63447;BME280;49577;49.872;6.190;2023-05-20T04:05:30;99763.02;;;12.08;62.93
63447;BME280;49577;49.872;6.190;2023-05-20T04:07:56;99761.80;;;12.08;62.88
63447;BME280;49577;49.872;6.190;2023-05-20T04:10:21;99762.78;;;12.09;62.68
63447;BME280;49577;49.872;6.190;2023-05-20T04:12:47;99761.52;;;12.09;62.78
63447;BME280;49577;49.872;6.190;2023-05-20T04:15:13;99764.83;;;12.12;62.55
63447;BME280;49577;49.872;6.190;2023-05-20T04:17:38;99764.70;;;12.14;62.56
63447;BME280;49577;49.872;6.190;2023-05-20T04:20:05;99766.52;;;12.16;62.53
63447;BME280;49577;49.872;6.190;2023-05-20T04:22:31;99768.06;;;12.19;62.49
63447;BME280;49577;49.872;6.190;2023-05-20T04:24:57;99769.31;;;12.18;63.15
63447;BME280;49577;49.872;6.190;2023-05-20T04:27:23;99769.48;;;12.19;63.65
63447;BME280;49577;49.872;6.190;2023-05-20T04:29:50;99767.57;;;12.21;63.40
63447;BME280;49577;49.872;6.190;2023-05-20T04:32:17;99771.38;;;12.24;63.51
63447;BME280;49577;49.872;6.190;2023-05-20T04:34:43;99766.71;;;12.28;63.94
63447;BME280;49577;49.872;6.190;2023-05-20T04:37:12;99769.33;;;12.36;63.36
63447;BME280;49577;49.872;6.190;2023-05-20T04:39:37;99765.76;;;12.43;62.04
63447;BME280;49577;49.872;6.190;2023-05-20T04:42:03;99766.67;;;12.47;62.13
63447;BME280;49577;49.872;6.190;2023-05-20T04:44:29;99768.27;;;12.52;61.50
63447;BME280;49577;49.872;6.190;2023-05-20T04:46:55;99767.30;;;12.61;60.94
63447;BME280;49577;49.872;6.190;2023-05-20T04:49:23;99764.58;;;12.75;61.23
63447;BME280;49577;49.872;6.190;2023-05-20T04:51:53;99759.39;;;12.94;61.05
63447;BME280;49577;49.872;6.190;2023-05-20T04:54:20;99759.48;;;13.15;61.51
63447;BME280;49577;49.872;6.190;2023-05-20T04:56:45;99756.50;;;13.36;61.01
63447;BME280;49577;49.872;6.190;2023-05-20T04:59:13;99754.73;;;13.57;59.72
63447;BME280;49577;49.872;6.190;2023-05-20T05:01:38;99747.82;;;13.77;59.04
63447;BME280;49577;49.872;6.190;2023-05-20T05:04:04;99748.58;;;14.00;58.52
63447;BME280;49577;49.872;6.190;2023-05-20T05:06:30;99743.60;;;14.22;58.10
63447;BME280;49577;49.872;6.190;2023-05-20T05:08:55;99743.49;;;14.56;57.11
63447;BME280;49577;49.872;6.190;2023-05-20T05:11:21;99740.83;;;15.22;55.76
63447;BME280;49577;49.872;6.190;2023-05-20T05:13:47;99742.23;;;15.98;53.23
63447;BME280;49577;49.872;6.190;2023-05-20T05:16:12;99739.77;;;16.66;51.66
63447;BME280;49577;49.872;6.190;2023-05-20T05:18:37;99736.71;;;17.26;50.68
63447;BME280;49577;49.872;6.190;2023-05-20T05:21:05;99734.48;;;17.81;48.78
63447;BME280;49577;49.872;6.190;2023-05-20T05:23:31;99736.65;;;18.26;47.95
63447;BME280;49577;49.872;6.190;2023-05-20T05:25:57;99731.45;;;18.75;46.45
63447;BME280;49577;49.872;6.190;2023-05-20T05:28:23;99731.80;;;19.02;45.47
63447;BME280;49577;49.872;6.190;2023-05-20T05:30:48;99733.52;;;19.32;44.93
63447;BME280;49577;49.872;6.190;2023-05-20T05:33:14;99732.15;;;19.66;43.92
63447;BME280;49577;49.872;6.190;2023-05-20T05:35:40;99732.45;;;19.81;42.29
63447;BME280;49577;49.872;6.190;2023-05-20T05:38:06;99734.13;;;20.09;42.94
63447;BME280;49577;49.872;6.190;2023-05-20T05:40:32;99733.09;;;20.56;42.27
63447;BME280;49577;49.872;6.190;2023-05-20T05:42:57;99731.53;;;20.93;41.04
63447;BME280;49577;49.872;6.190;2023-05-20T05:45:22;99730.65;;;21.14;40.64
63447;BME280;49577;49.872;6.190;2023-05-20T05:47:48;99723.92;;;21.35;39.80
63447;BME280;49577;49.872;6.190;2023-05-20T05:50:13;99727.85;;;21.61;39.20
63447;BME280;49577;49.872;6.190;2023-05-20T05:52:38;99723.07;;;21.88;38.87
63447;BME280;49577;49.872;6.190;2023-05-20T05:55:04;99722.48;;;22.07;38.15
63447;BME280;49577;49.872;6.190;2023-05-20T05:57:29;99727.14;;;22.20;38.00
63447;BME280;49577;49.872;6.190;2023-05-20T05:59:55;99723.31;;;22.33;37.50
63447;BME280;49577;49.872;6.190;2023-05-20T06:02:21;99719.04;;;22.43;37.34
63447;BME280;49577;49.872;6.190;2023-05-20T06:04:46;99723.52;;;22.58;37.10
63447;BME280;49577;49.872;6.190;2023-05-20T06:07:11;99723.39;;;22.90;36.89
63447;BME280;49577;49.872;6.190;2023-05-20T06:09:37;99721.89;;;23.12;35.75
63447;BME280;49577;49.872;6.190;2023-05-20T06:12:03;99718.59;;;23.16;35.63
63447;BME280;49577;49.872;6.190;2023-05-20T06:14:28;99718.00;;;23.13;35.40
63447;BME280;49577;49.872;6.190;2023-05-20T06:16:54;99718.20;;;23.01;35.60
63447;BME280;49577;49.872;6.190;2023-05-20T06:19:19;99716.71;;;22.93;35.49
63447;BME280;49577;49.872;6.190;2023-05-20T06:21:44;99719.87;;;22.71;35.28
63447;BME280;49577;49.872;6.190;2023-05-20T06:24:10;99716.72;;;22.46;35.31
63447;BME280;49577;49.872;6.190;2023-05-20T06:26:35;99715.70;;;22.43;35.96
63447;BME280;49577;49.872;6.190;2023-05-20T06:29:01;99711.89;;;22.63;36.04
63447;BME280;49577;49.872;6.190;2023-05-20T06:31:26;99715.55;;;22.78;35.51
63447;BME280;49577;49.872;6.190;2023-05-20T06:33:54;99708.30;;;22.66;35.25
63447;BME280;49577;49.872;6.190;2023-05-20T06:36:20;99705.22;;;22.57;35.90
63447;BME280;49577;49.872;6.190;2023-05-20T06:38:45;99705.92;;;22.70;35.63
63447;BME280;49577;49.872;6.190;2023-05-20T06:41:11;99710.92;;;22.73;35.85
63447;BME280;49577;49.872;6.190;2023-05-20T06:43:36;99708.08;;;22.75;36.21
63447;BME280;49577;49.872;6.190;2023-05-20T06:46:02;99709.23;;;22.86;35.94
63447;BME280;49577;49.872;6.190;2023-05-20T06:48:27;99709.42;;;22.80;35.74
63447;BME280;49577;49.872;6.190;2023-05-20T06:50:52;99708.89;;;22.63;36.12
63447;BME280;49577;49.872;6.190;2023-05-20T06:53:18;99703.91;;;22.34;36.47
63447;BME280;49577;49.872;6.190;2023-05-20T06:55:43;99702.78;;;22.02;36.83
63447;BME280;49577;49.872;6.190;2023-05-20T06:58:08;99702.53;;;21.78;37.29
63447;BME280;49577;49.872;6.190;2023-05-20T07:00:34;99705.58;;;21.60;37.64
63447;BME280;49577;49.872;6.190;2023-05-20T07:02:59;99699.55;;;21.42;37.83
63447;BME280;49577;49.872;6.190;2023-05-20T07:05:24;99701.31;;;21.34;38.23
63447;BME280;49577;49.872;6.190;2023-05-20T07:07:51;99704.92;;;21.29;38.23
63447;BME280;49577;49.872;6.190;2023-05-20T07:10:17;99708.91;;;21.26;38.34
63447;BME280;49577;49.872;6.190;2023-05-20T07:12:42;99714.42;;;21.23;38.31
63447;BME280;49577;49.872;6.190;2023-05-20T07:15:08;99707.27;;;21.35;38.61
63447;BME280;49577;49.872;6.190;2023-05-20T07:17:33;99706.55;;;21.32;38.34
63447;BME280;49577;49.872;6.190;2023-05-20T07:19:58;99703.09;;;21.39;38.99
63447;BME280;49577;49.872;6.190;2023-05-20T07:22:24;99705.77;;;21.59;38.46
63447;BME280;49577;49.872;6.190;2023-05-20T07:24:49;99699.46;;;21.76;38.32
63447;BME280;49577;49.872;6.190;2023-05-20T07:27:14;99696.37;;;21.95;37.94
63447;BME280;49577;49.872;6.190;2023-05-20T07:29:40;99693.05;;;22.14;37.65
63447;BME280;49577;49.872;6.190;2023-05-20T07:32:07;99690.23;;;22.27;37.14
63447;BME280;49577;49.872;6.190;2023-05-20T07:34:32;99689.89;;;22.09;37.30
63447;BME280;49577;49.872;6.190;2023-05-20T07:36:58;99690.10;;;21.99;37.29
63447;BME280;49577;49.872;6.190;2023-05-20T07:39:23;99683.45;;;22.01;37.62
63447;BME280;49577;49.872;6.190;2023-05-20T07:41:48;99675.27;;;22.21;37.80
63447;BME280;49577;49.872;6.190;2023-05-20T07:44:14;99671.70;;;22.50;37.11
63447;BME280;49577;49.872;6.190;2023-05-20T07:46:40;99667.38;;;22.85;36.98
63447;BME280;49577;49.872;6.190;2023-05-20T07:49:06;99661.21;;;23.30;36.60
63447;BME280;49577;49.872;6.190;2023-05-20T07:51:31;99659.59;;;23.77;36.02
63447;BME280;49577;49.872;6.190;2023-05-20T07:53:57;99653.80;;;24.09;35.41
63447;BME280;49577;49.872;6.190;2023-05-20T07:56:22;99648.68;;;24.02;34.88
63447;BME280;49577;49.872;6.190;2023-05-20T07:58:56;99645.30;;;23.66;35.61
63447;BME280;49577;49.872;6.190;2023-05-20T08:01:27;99647.88;;;23.25;36.36
63447;BME280;49577;49.872;6.190;2023-05-20T08:03:52;99642.36;;;22.89;36.71
63447;BME280;49577;49.872;6.190;2023-05-20T08:06:18;99642.36;;;22.86;37.13
63447;BME280;49577;49.872;6.190;2023-05-20T08:08:50;99637.60;;;23.03;37.04
63447;BME280;49577;49.872;6.190;2023-05-20T08:11:19;99638.44;;;23.48;36.37
63447;BME280;49577;49.872;6.190;2023-05-20T08:13:46;99635.38;;;23.92;35.56
63447;BME280;49577;49.872;6.190;2023-05-20T08:16:11;99631.20;;;24.42;34.92
63447;BME280;49577;49.872;6.190;2023-05-20T08:18:36;99629.80;;;25.05;35.25
63447;BME280;49577;49.872;6.190;2023-05-20T08:21:02;99625.11;;;25.82;33.61
63447;BME280;49577;49.872;6.190;2023-05-20T08:23:27;99624.48;;;26.41;33.35
63447;BME280;49577;49.872;6.190;2023-05-20T08:25:53;99618.06;;;26.99;32.45
63447;BME280;49577;49.872;6.190;2023-05-20T08:28:18;99614.58;;;27.45;31.61
63447;BME280;49577;49.872;6.190;2023-05-20T08:30:44;99615.16;;;27.98;30.78
63447;BME280;49577;49.872;6.190;2023-05-20T08:33:09;99617.20;;;28.30;29.84
63447;BME280;49577;49.872;6.190;2023-05-20T08:35:35;99619.33;;;28.40;29.30
63447;BME280;49577;49.872;6.190;2023-05-20T08:38:03;99623.27;;;28.41;29.33
63447;BME280;49577;49.872;6.190;2023-05-20T08:40:29;99623.58;;;28.26;29.33
63447;BME280;49577;49.872;6.190;2023-05-20T08:42:54;99617.56;;;28.24;29.46
63447;BME280;49577;49.872;6.190;2023-05-20T08:45:22;99610.84;;;28.73;29.02
63447;BME280;49577;49.872;6.190;2023-05-20T08:47:51;99608.49;;;29.00;28.20
63447;BME280;49577;49.872;6.190;2023-05-20T08:50:17;99614.98;;;28.87;28.13
63447;BME280;49577;49.872;6.190;2023-05-20T08:52:44;99614.24;;;28.96;28.05
63447;BME280;49577;49.872;6.190;2023-05-20T08:55:13;99607.92;;;29.22;27.94
63447;BME280;49577;49.872;6.190;2023-05-20T08:57:39;99603.88;;;29.73;27.42
63447;BME280;49577;49.872;6.190;2023-05-20T09:00:08;99602.77;;;29.54;27.13
63447;BME280;49577;49.872;6.190;2023-05-20T09:02:38;99601.84;;;29.72;27.62
63447;BME280;49577;49.872;6.190;2023-05-20T09:05:03;99605.96;;;30.27;27.16
63447;BME280;49577;49.872;6.190;2023-05-20T09:07:29;99600.54;;;30.50;26.69
63447;BME280;49577;49.872;6.190;2023-05-20T09:09:56;99599.71;;;30.68;26.41
63447;BME280;49577;49.872;6.190;2023-05-20T09:12:21;99605.58;;;30.83;26.25
63447;BME280;49577;49.872;6.190;2023-05-20T09:14:47;99604.52;;;30.92;25.99
63447;BME280;49577;49.872;6.190;2023-05-20T09:17:12;99604.66;;;30.81;25.84
63447;BME280;49577;49.872;6.190;2023-05-20T09:19:38;99600.70;;;30.62;26.61
63447;BME280;49577;49.872;6.190;2023-05-20T09:22:03;99597.39;;;30.50;26.19
63447;BME280;49577;49.872;6.190;2023-05-20T09:24:29;99590.80;;;30.44;26.48
63447;BME280;49577;49.872;6.190;2023-05-20T09:26:55;99591.29;;;30.90;26.78
63447;BME280;49577;49.872;6.190;2023-05-20T09:29:22;99589.20;;;30.82;26.56
63447;BME280;49577;49.872;6.190;2023-05-20T09:31:48;99586.77;;;30.41;27.14
63447;BME280;49577;49.872;6.190;2023-05-20T09:34:14;99585.52;;;29.85;27.34
63447;BME280;49577;49.872;6.190;2023-05-20T09:36:41;99588.39;;;29.30;27.75
63447;BME280;49577;49.872;6.190;2023-05-20T09:39:13;99584.49;;;29.12;28.17
63447;BME280;49577;49.872;6.190;2023-05-20T09:41:48;99584.30;;;28.95;28.57
63447;BME280;49577;49.872;6.190;2023-05-20T09:44:16;99581.98;;;28.07;28.91
63447;BME280;49577;49.872;6.190;2023-05-20T09:46:44;99583.16;;;27.43;30.02
63447;BME280;49577;49.872;6.190;2023-05-20T09:49:11;99580.70;;;27.24;30.52
63447;BME280;49577;49.872;6.190;2023-05-20T09:51:37;99579.88;;;27.12;30.86
63447;BME280;49577;49.872;6.190;2023-05-20T09:54:04;99578.63;;;27.18;31.33
63447;BME280;49577;49.872;6.190;2023-05-20T09:56:29;99585.55;;;27.33;31.09
63447;BME280;49577;49.872;6.190;2023-05-20T09:58:57;99585.27;;;27.00;31.46
63447;BME280;49577;49.872;6.190;2023-05-20T10:01:23;99578.05;;;26.70;31.86
63447;BME280;49577;49.872;6.190;2023-05-20T10:03:50;99576.77;;;26.67;32.94
63447;BME280;49577;49.872;6.190;2023-05-20T10:06:28;99576.98;;;26.51;33.57
63447;BME280;49577;49.872;6.190;2023-05-20T10:09:06;99574.40;;;26.27;33.45
63447;BME280;49577;49.872;6.190;2023-05-20T10:14:31;99577.08;;;26.89;32.66
63447;BME280;49577;49.872;6.190;2023-05-20T10:19:41;99582.02;;;27.83;31.33
63447;BME280;49577;49.872;6.190;2023-05-20T10:22:08;99576.60;;;27.64;31.01
63447;BME280;49577;49.872;6.190;2023-05-20T10:27:06;99558.02;;;28.49;30.17
63447;BME280;49577;49.872;6.190;2023-05-20T10:29:52;99554.66;;;28.86;30.26
63447;BME280;49577;49.872;6.190;2023-05-20T10:32:27;99555.96;;;29.37;29.80
63447;BME280;49577;49.872;6.190;2023-05-20T10:35:01;99558.35;;;30.02;28.68
63447;BME280;49577;49.872;6.190;2023-05-20T10:37:31;99551.03;;;30.20;27.89
63447;BME280;49577;49.872;6.190;2023-05-20T10:40:14;99546.94;;;30.09;27.97
63447;BME280;49577;49.872;6.190;2023-05-20T10:42:42;99552.36;;;30.20;27.60
63447;BME280;49577;49.872;6.190;2023-05-20T10:45:09;99548.30;;;30.27;26.90
63447;BME280;49577;49.872;6.190;2023-05-20T10:47:35;99551.27;;;29.98;27.06
63447;BME280;49577;49.872;6.190;2023-05-20T10:50:01;99556.00;;;29.69;27.31
63447;BME280;49577;49.872;6.190;2023-05-20T10:52:32;99553.94;;;29.10;27.63
63447;BME280;49577;49.872;6.190;2023-05-20T10:54:59;99557.81;;;28.70;28.41
63447;BME280;49577;49.872;6.190;2023-05-20T10:57:26;99555.55;;;28.75;28.24
63447;BME280;49577;49.872;6.190;2023-05-20T10:59:52;99551.27;;;28.64;28.38
63447;BME280;49577;49.872;6.190;2023-05-20T11:02:19;99547.92;;;28.91;28.40
63447;BME280;49577;49.872;6.190;2023-05-20T11:04:50;99539.98;;;29.15;28.21
63447;BME280;49577;49.872;6.190;2023-05-20T11:07:26;99539.84;;;29.35;28.20
63447;BME280;49577;49.872;6.190;2023-05-20T11:09:53;99538.90;;;29.56;27.96
63447;BME280;49577;49.872;6.190;2023-05-20T11:12:20;99532.58;;;29.76;27.68
63447;BME280;49577;49.872;6.190;2023-05-20T11:14:47;99534.85;;;30.01;27.38
63447;BME280;49577;49.872;6.190;2023-05-20T11:17:13;99528.70;;;30.18;27.07
63447;BME280;49577;49.872;6.190;2023-05-20T11:19:38;99533.36;;;29.92;27.06
63447;BME280;49577;49.872;6.190;2023-05-20T11:22:06;99535.83;;;29.48;27.34
63447;BME280;49577;49.872;6.190;2023-05-20T11:24:32;99540.08;;;29.04;27.80
63447;BME280;49577;49.872;6.190;2023-05-20T11:26:59;99536.61;;;28.40;28.65
63447;BME280;49577;49.872;6.190;2023-05-20T11:29:25;99536.96;;;28.04;29.32
63447;BME280;49577;49.872;6.190;2023-05-20T11:31:51;99533.86;;;27.76;29.96
63447;BME280;49577;49.872;6.190;2023-05-20T11:34:22;99540.06;;;27.28;30.29
63447;BME280;49577;49.872;6.190;2023-05-20T11:36:54;99530.64;;;26.85;31.08
63447;BME280;49577;49.872;6.190;2023-05-20T11:39:20;99528.73;;;26.69;31.89
63447;BME280;49577;49.872;6.190;2023-05-20T11:41:46;99526.03;;;26.65;31.85
63447;BME280;49577;49.872;6.190;2023-05-20T11:44:11;99522.23;;;26.68;31.94
63447;BME280;49577;49.872;6.190;2023-05-20T11:46:41;99518.64;;;26.86;32.13
63447;BME280;49577;49.872;6.190;2023-05-20T11:49:07;99531.66;;;26.86;31.85
63447;BME280;49577;49.872;6.190;2023-05-20T11:51:33;99525.63;;;26.56;32.20
63447;BME280;49577;49.872;6.190;2023-05-20T11:54:00;99518.27;;;26.41;32.57
63447;BME280;49577;49.872;6.190;2023-05-20T11:56:28;99519.38;;;26.14;32.57
63447;BME280;49577;49.872;6.190;2023-05-20T11:58:56;99521.55;;;26.01;33.36
63447;BME280;49577;49.872;6.190;2023-05-20T12:01:21;99516.35;;;26.03;33.13
63447;BME280;49577;49.872;6.190;2023-05-20T12:03:47;99518.09;;;25.89;33.80
63447;BME280;49577;49.872;6.190;2023-05-20T12:06:12;99521.01;;;25.74;33.93
63447;BME280;49577;49.872;6.190;2023-05-20T12:08:37;99513.39;;;25.61;33.86
63447;BME280;49577;49.872;6.190;2023-05-20T12:11:03;99505.95;;;25.73;33.62
63447;BME280;49577;49.872;6.190;2023-05-20T12:13:28;99513.65;;;25.97;33.86
63447;BME280;49577;49.872;6.190;2023-05-20T12:15:53;99502.98;;;25.89;33.49
63447;BME280;49577;49.872;6.190;2023-05-20T12:18:18;99502.86;;;25.57;33.36
63447;BME280;49577;49.872;6.190;2023-05-20T12:20:44;99497.45;;;25.34;33.88
63447;BME280;49577;49.872;6.190;2023-05-20T12:23:09;99496.18;;;25.25;34.17
63447;BME280;49577;49.872;6.190;2023-05-20T12:25:35;99489.77;;;25.22;34.20
63447;BME280;49577;49.872;6.190;2023-05-20T12:28:00;99494.93;;;25.06;35.54
63447;BME280;49577;49.872;6.190;2023-05-20T12:30:26;99491.55;;;25.13;35.02
63447;BME280;49577;49.872;6.190;2023-05-20T12:32:51;99493.86;;;25.21;35.24
63447;BME280;49577;49.872;6.190;2023-05-20T12:35:24;99479.06;;;25.29;34.77
63447;BME280;49577;49.872;6.190;2023-05-20T12:37:50;99479.67;;;25.18;35.41
63447;BME280;49577;49.872;6.190;2023-05-20T12:40:15;99485.91;;;25.16;34.92
63447;BME280;49577;49.872;6.190;2023-05-20T12:42:43;99482.80;;;25.05;34.99
63447;BME280;49577;49.872;6.190;2023-05-20T12:45:08;99478.52;;;24.89;35.10
63447;BME280;49577;49.872;6.190;2023-05-20T12:47:34;99474.46;;;24.88;35.61
63447;BME280;49577;49.872;6.190;2023-05-20T12:50:01;99470.83;;;24.87;35.40
63447;BME280;49577;49.872;6.190;2023-05-20T12:52:27;99467.95;;;24.88;35.06
63447;BME280;49577;49.872;6.190;2023-05-20T12:54:53;99472.55;;;24.86;35.30
63447;BME280;49577;49.872;6.190;2023-05-20T12:57:20;99468.48;;;24.83;35.57
63447;BME280;49577;49.872;6.190;2023-05-20T12:59:45;99466.84;;;24.80;35.91
63447;BME280;49577;49.872;6.190;2023-05-20T13:02:11;99470.45;;;24.75;35.42
63447;BME280;49577;49.872;6.190;2023-05-20T13:04:36;99457.23;;;24.68;35.86